sensor_id;sensor_type;location;lat;lon;timestamp;P1;durP1;ratioP1;P2;durP2;ratioP2
4569;SDS011;2297;51.442;6.996;2024-03-02T00:00:14;6.47;;;2.20;;
4569;SDS011;2297;51.442;6.996;2024-03-02T00:02:40;3.03;;;2.10;;
4569;SDS011;2297;51.442;6.996;2024-03-02T00:05:24;3.05;;;1.90;;
4569;SDS011;2297;51.442;6.996;2024-03-02T00:07:52;3.88;;;2.13;;
4569;SDS011;2297;51.442;6.996;2024-03-02T00:10:21;3.22;;;2.13;;
4569;SDS011;2297;51.442;6.996;2024-03-02T00:12:50;2.63;;;1.90;;
4569;SDS011;2297;51.442;6.996;2024-03-02T00:15:25;4.97;;;1.80;;
4569;SDS011;2297;51.442;6.996;2024-03-02T00:18:06;1.98;;;1.60;;
4569;SDS011;2297;51.442;6.996;2024-03-02T00:20:35;3.03;;;1.80;;
4569;SDS011;2297;51.442;6.996;2024-03-02T00:23:02;2.80;;;1.70;;
4569;SDS011;2297;51.442;6.996;2024-03-02T00:25:34;2.88;;;1.70;;
4569;SDS011;2297;51.442;6.996;2024-03-02T00:28:04;2.63;;;1.70;;
4569;SDS011;2297;51.442;6.996;2024-03-02T00:30:41;2.40;;;1.60;;
4569;SDS011;2297;51.442;6.996;2024-03-02T00:33:18;3.05;;;1.73;;
4569;SDS011;2297;51.442;6.996;2024-03-02T00:35:47;3.63;;;2.10;;
4569;SDS011;2297;51.442;6.996;2024-03-02T00:38:14;3.88;;;1.70;;
4569;SDS011;2297;51.442;6.996;2024-03-02T00:40:41;3.40;;;2.05;;
4569;SDS011;2297;51.442;6.996;2024-03-02T00:43:10;3.28;;;1.92;;
4569;SDS011;2297;51.442;6.996;2024-03-02T00:46:00;5.38;;;2.70;;
4569;SDS011;2297;51.442;6.996;2024-03-02T00:48:26;4.82;;;2.13;;
4569;SDS011;2297;51.442;6.996;2024-03-02T00:50:55;3.55;;;1.80;;
4569;SDS011;2297;51.442;6.996;2024-03-02T00:53:22;3.30;;;1.73;;
4569;SDS011;2297;51.442;6.996;2024-03-02T00:58:57;3.55;;;1.60;;
4569;SDS011;2297;51.442;6.996;2024-03-02T01:01:24;2.83;;;1.55;;
4569;SDS011;2297;51.442;6.996;2024-03-02T01:03:52;2.10;;;1.65;;
4569;SDS011;2297;51.442;6.996;2024-03-02T01:06:20;3.33;;;1.65;;
4569;SDS011;2297;51.442;6.996;2024-03-02T01:08:47;4.60;;;1.50;;
4569;SDS011;2297;51.442;6.996;2024-03-02T01:11:16;5.22;;;1.50;;
4569;SDS011;2297;51.442;6.996;2024-03-02T01:13:43;3.47;;;1.42;;
4569;SDS011;2297;51.442;6.996;2024-03-02T01:16:09;3.17;;;1.40;;
4569;SDS011;2297;51.442;6.996;2024-03-02T01:18:36;3.00;;;1.60;;
4569;SDS011;2297;51.442;6.996;2024-03-02T01:21:03;2.75;;;1.50;;
4569;SDS011;2297;51.442;6.996;2024-03-02T01:23:31;3.85;;;1.30;;
4569;SDS011;2297;51.442;6.996;2024-03-02T01:25:58;2.10;;;1.42;;
4569;SDS011;2297;51.442;6.996;2024-03-02T01:28:24;2.72;;;1.50;;
4569;SDS011;2297;51.442;6.996;2024-03-02T01:30:51;5.65;;;1.40;;
4569;SDS011;2297;51.442;6.996;2024-03-02T01:33:18;2.88;;;1.73;;
4569;SDS011;2297;51.442;6.996;2024-03-02T01:35:46;1.80;;;1.40;;
4569;SDS011;2297;51.442;6.996;2024-03-02T01:38:12;3.20;;;1.90;;
4569;SDS011;2297;51.442;6.996;2024-03-02T01:40:40;2.08;;;1.50;;
4569;SDS011;2297;51.442;6.996;2024-03-02T01:43:09;3.60;;;1.80;;
4569;SDS011;2297;51.442;6.996;2024-03-02T01:45:36;2.35;;;1.30;;
4569;SDS011;2297;51.442;6.996;2024-03-02T01:48:03;4.07;;;1.77;;
4569;SDS011;2297;51.442;6.996;2024-03-02T01:50:31;3.28;;;1.50;;
4569;SDS011;2297;51.442;6.996;2024-03-02T01:52:59;3.35;;;1.48;;
4569;SDS011;2297;51.442;6.996;2024-03-02T01:55:26;2.92;;;1.40;;
4569;SDS011;2297;51.442;6.996;2024-03-02T01:57:56;3.00;;;1.20;;
4569;SDS011;2297;51.442;6.996;2024-03-02T02:00:23;1.90;;;1.38;;
4569;SDS011;2297;51.442;6.996;2024-03-02T02:02:51;5.75;;;1.30;;
4569;SDS011;2297;51.442;6.996;2024-03-02T02:05:18;2.30;;;1.40;;
4569;SDS011;2297;51.442;6.996;2024-03-02T02:07:44;4.55;;;1.40;;
4569;SDS011;2297;51.442;6.996;2024-03-02T02:10:12;3.05;;;1.50;;
4569;SDS011;2297;51.442;6.996;2024-03-02T02:12:38;2.60;;;1.20;;
4569;SDS011;2297;51.442;6.996;2024-03-02T02:17:49;2.88;;;1.83;;
4569;SDS011;2297;51.442;6.996;2024-03-02T02:20:15;1.55;;;1.33;;
4569;SDS011;2297;51.442;6.996;2024-03-02T02:22:53;3.42;;;1.70;;
4569;SDS011;2297;51.442;6.996;2024-03-02T02:25:21;3.15;;;1.50;;
4569;SDS011;2297;51.442;6.996;2024-03-02T02:27:47;2.08;;;1.52;;
4569;SDS011;2297;51.442;6.996;2024-03-02T02:30:15;4.97;;;1.90;;
4569;SDS011;2297;51.442;6.996;2024-03-02T02:32:45;2.42;;;1.30;;
4569;SDS011;2297;51.442;6.996;2024-03-02T02:35:11;5.30;;;1.60;;
4569;SDS011;2297;51.442;6.996;2024-03-02T02:37:38;4.95;;;1.40;;
4569;SDS011;2297;51.442;6.996;2024-03-02T02:40:07;1.73;;;1.30;;
4569;SDS011;2297;51.442;6.996;2024-03-02T02:42:34;2.80;;;1.50;;
4569;SDS011;2297;51.442;6.996;2024-03-02T02:45:01;2.20;;;1.40;;
4569;SDS011;2297;51.442;6.996;2024-03-02T02:47:28;3.53;;;1.67;;
4569;SDS011;2297;51.442;6.996;2024-03-02T02:49:55;5.53;;;1.65;;
4569;SDS011;2297;51.442;6.996;2024-03-02T02:52:22;3.28;;;1.30;;
4569;SDS011;2297;51.442;6.996;2024-03-02T02:54:48;1.70;;;1.30;;
4569;SDS011;2297;51.442;6.996;2024-03-02T02:57:16;2.42;;;1.40;;
4569;SDS011;2297;51.442;6.996;2024-03-02T02:59:43;2.85;;;1.45;;
4569;SDS011;2297;51.442;6.996;2024-03-02T03:02:09;3.10;;;1.48;;
4569;SDS011;2297;51.442;6.996;2024-03-02T03:04:36;2.10;;;1.50;;
4569;SDS011;2297;51.442;6.996;2024-03-02T03:07:03;4.00;;;1.40;;
4569;SDS011;2297;51.442;6.996;2024-03-02T03:09:29;1.77;;;1.30;;
4569;SDS011;2297;51.442;6.996;2024-03-02T03:11:56;3.67;;;1.50;;
4569;SDS011;2297;51.442;6.996;2024-03-02T03:14:24;2.28;;;1.30;;
4569;SDS011;2297;51.442;6.996;2024-03-02T03:16:51;2.42;;;1.58;;
4569;SDS011;2297;51.442;6.996;2024-03-02T03:19:17;1.73;;;1.35;;
4569;SDS011;2297;51.442;6.996;2024-03-02T03:21:44;3.60;;;1.40;;
4569;SDS011;2297;51.442;6.996;2024-03-02T03:24:10;2.53;;;1.30;;
4569;SDS011;2297;51.442;6.996;2024-03-02T03:26:37;5.85;;;1.33;;
4569;SDS011;2297;51.442;6.996;2024-03-02T03:29:04;1.65;;;1.45;;
4569;SDS011;2297;51.442;6.996;2024-03-02T03:31:32;3.92;;;1.50;;
4569;SDS011;2297;51.442;6.996;2024-03-02T03:33:59;3.40;;;1.40;;
4569;SDS011;2297;51.442;6.996;2024-03-02T03:36:26;4.80;;;1.60;;
4569;SDS011;2297;51.442;6.996;2024-03-02T03:38:52;3.53;;;1.38;;
4569;SDS011;2297;51.442;6.996;2024-03-02T03:41:19;2.22;;;1.40;;
4569;SDS011;2297;51.442;6.996;2024-03-02T03:43:45;3.55;;;1.60;;
4569;SDS011;2297;51.442;6.996;2024-03-02T03:46:12;4.72;;;1.70;;
4569;SDS011;2297;51.442;6.996;2024-03-02T03:48:40;1.92;;;1.23;;
4569;SDS011;2297;51.442;6.996;2024-03-02T03:51:07;2.47;;;1.30;;
4569;SDS011;2297;51.442;6.996;2024-03-02T03:53:33;3.60;;;1.85;;
4569;SDS011;2297;51.442;6.996;2024-03-02T03:56:00;4.10;;;1.30;;
4569;SDS011;2297;51.442;6.996;2024-03-02T03:58:26;3.08;;;1.60;;
4569;SDS011;2297;51.442;6.996;2024-03-02T04:00:53;2.35;;;1.63;;
4569;SDS011;2297;51.442;6.996;2024-03-02T04:03:19;2.72;;;1.30;;
4569;SDS011;2297;51.442;6.996;2024-03-02T04:05:47;2.92;;;1.60;;
4569;SDS011;2297;51.442;6.996;2024-03-02T04:08:13;1.75;;;1.33;;
4569;SDS011;2297;51.442;6.996;2024-03-02T04:10:40;2.83;;;1.88;;
4569;SDS011;2297;51.442;6.996;2024-03-02T04:13:07;2.17;;;1.40;;
4569;SDS011;2297;51.442;6.996;2024-03-02T04:15:34;2.17;;;1.80;;
4569;SDS011;2297;51.442;6.996;2024-03-02T04:18:01;2.72;;;1.40;;
4569;SDS011;2297;51.442;6.996;2024-03-02T04:20:28;4.30;;;1.77;;
4569;SDS011;2297;51.442;6.996;2024-03-02T04:22:56;4.05;;;1.50;;
4569;SDS011;2297;51.442;6.996;2024-03-02T04:25:22;2.10;;;1.50;;
4569;SDS011;2297;51.442;6.996;2024-03-02T04:27:49;1.83;;;1.20;;
4569;SDS011;2297;51.442;6.996;2024-03-02T04:30:16;2.88;;;1.50;;
4569;SDS011;2297;51.442;6.996;2024-03-02T04:32:43;2.80;;;1.65;;
4569;SDS011;2297;51.442;6.996;2024-03-02T04:35:11;6.00;;;1.55;;
4569;SDS011;2297;51.442;6.996;2024-03-02T04:37:38;2.95;;;1.45;;
4569;SDS011;2297;51.442;6.996;2024-03-02T04:40:07;3.72;;;1.40;;
4569;SDS011;2297;51.442;6.996;2024-03-02T04:42:34;3.25;;;1.50;;
4569;SDS011;2297;51.442;6.996;2024-03-02T04:45:01;3.88;;;1.55;;
4569;SDS011;2297;51.442;6.996;2024-03-02T04:47:28;4.85;;;1.88;;
4569;SDS011;2297;51.442;6.996;2024-03-02T04:49:54;2.95;;;1.60;;
4569;SDS011;2297;51.442;6.996;2024-03-02T04:52:21;2.53;;;1.50;;
4569;SDS011;2297;51.442;6.996;2024-03-02T04:54:48;11.60;;;1.92;;
4569;SDS011;2297;51.442;6.996;2024-03-02T04:57:33;3.05;;;1.65;;
4569;SDS011;2297;51.442;6.996;2024-03-02T04:59:59;1.40;;;1.30;;
4569;SDS011;2297;51.442;6.996;2024-03-02T05:02:26;2.45;;;1.35;;
4569;SDS011;2297;51.442;6.996;2024-03-02T05:04:53;3.75;;;1.40;;
4569;SDS011;2297;51.442;6.996;2024-03-02T05:07:19;2.85;;;1.58;;
4569;SDS011;2297;51.442;6.996;2024-03-02T05:09:46;2.67;;;1.48;;
4569;SDS011;2297;51.442;6.996;2024-03-02T05:12:13;4.47;;;2.17;;
4569;SDS011;2297;51.442;6.996;2024-03-02T05:18:28;2.47;;;1.63;;
4569;SDS011;2297;51.442;6.996;2024-03-02T05:20:55;2.47;;;1.42;;
4569;SDS011;2297;51.442;6.996;2024-03-02T05:23:21;3.72;;;1.75;;
4569;SDS011;2297;51.442;6.996;2024-03-02T05:25:49;2.92;;;1.70;;
4569;SDS011;2297;51.442;6.996;2024-03-02T05:28:16;2.78;;;1.60;;
4569;SDS011;2297;51.442;6.996;2024-03-02T05:30:42;3.45;;;1.73;;
4569;SDS011;2297;51.442;6.996;2024-03-02T05:33:09;2.75;;;1.70;;
4569;SDS011;2297;51.442;6.996;2024-03-02T05:35:37;2.35;;;1.60;;
4569;SDS011;2297;51.442;6.996;2024-03-02T05:38:03;3.60;;;1.67;;
4569;SDS011;2297;51.442;6.996;2024-03-02T05:40:30;3.92;;;1.92;;
4569;SDS011;2297;51.442;6.996;2024-03-02T05:42:57;2.22;;;1.75;;
4569;SDS011;2297;51.442;6.996;2024-03-02T05:45:23;2.35;;;1.58;;
4569;SDS011;2297;51.442;6.996;2024-03-02T05:47:50;3.15;;;1.90;;
4569;SDS011;2297;51.442;6.996;2024-03-02T05:50:16;3.08;;;1.48;;
4569;SDS011;2297;51.442;6.996;2024-03-02T05:52:46;2.60;;;2.05;;
4569;SDS011;2297;51.442;6.996;2024-03-02T05:55:13;3.08;;;2.25;;
4569;SDS011;2297;51.442;6.996;2024-03-02T05:57:40;2.75;;;1.80;;
4569;SDS011;2297;51.442;6.996;2024-03-02T06:00:20;5.18;;;2.15;;
4569;SDS011;2297;51.442;6.996;2024-03-02T06:02:47;2.30;;;1.80;;
4569;SDS011;2297;51.442;6.996;2024-03-02T06:05:13;3.42;;;1.90;;
4569;SDS011;2297;51.442;6.996;2024-03-02T06:07:41;4.82;;;1.83;;
4569;SDS011;2297;51.442;6.996;2024-03-02T06:10:10;4.53;;;1.92;;
4569;SDS011;2297;51.442;6.996;2024-03-02T06:12:37;3.47;;;1.77;;
4569;SDS011;2297;51.442;6.996;2024-03-02T06:15:04;5.35;;;2.08;;
4569;SDS011;2297;51.442;6.996;2024-03-02T06:17:31;3.85;;;1.98;;
4569;SDS011;2297;51.442;6.996;2024-03-02T06:19:58;3.28;;;1.73;;
4569;SDS011;2297;51.442;6.996;2024-03-02T06:22:24;4.75;;;1.90;;
4569;SDS011;2297;51.442;6.996;2024-03-02T06:24:51;2.88;;;2.00;;
4569;SDS011;2297;51.442;6.996;2024-03-02T06:27:19;3.28;;;1.92;;
4569;SDS011;2297;51.442;6.996;2024-03-02T06:29:45;3.05;;;2.03;;
4569;SDS011;2297;51.442;6.996;2024-03-02T06:32:13;3.25;;;1.90;;
4569;SDS011;2297;51.442;6.996;2024-03-02T06:34:40;3.30;;;1.95;;
4569;SDS011;2297;51.442;6.996;2024-03-02T06:37:06;4.47;;;1.75;;
4569;SDS011;2297;51.442;6.996;2024-03-02T06:39:33;4.60;;;2.25;;
4569;SDS011;2297;51.442;6.996;2024-03-02T06:41:59;3.70;;;1.92;;
4569;SDS011;2297;51.442;6.996;2024-03-02T06:44:31;4.63;;;1.83;;
4569;SDS011;2297;51.442;6.996;2024-03-02T06:46:57;2.75;;;1.90;;
4569;SDS011;2297;51.442;6.996;2024-03-02T06:49:24;3.17;;;2.13;;
4569;SDS011;2297;51.442;6.996;2024-03-02T06:51:51;3.10;;;2.20;;
4569;SDS011;2297;51.442;6.996;2024-03-02T06:54:17;3.15;;;1.98;;
4569;SDS011;2297;51.442;6.996;2024-03-02T06:56:44;4.13;;;2.25;;
4569;SDS011;2297;51.442;6.996;2024-03-02T06:59:10;3.65;;;1.90;;
4569;SDS011;2297;51.442;6.996;2024-03-02T07:01:38;4.03;;;2.40;;
4569;SDS011;2297;51.442;6.996;2024-03-02T07:04:05;3.17;;;2.17;;
4569;SDS011;2297;51.442;6.996;2024-03-02T07:06:32;2.83;;;2.20;;
4569;SDS011;2297;51.442;6.996;2024-03-02T07:08:58;4.40;;;2.10;;
4569;SDS011;2297;51.442;6.996;2024-03-02T07:11:26;3.92;;;1.98;;
4569;SDS011;2297;51.442;6.996;2024-03-02T07:13:53;4.82;;;2.35;;
4569;SDS011;2297;51.442;6.996;2024-03-02T07:16:20;4.75;;;2.38;;
4569;SDS011;2297;51.442;6.996;2024-03-02T07:19:12;3.10;;;2.03;;
4569;SDS011;2297;51.442;6.996;2024-03-02T07:21:39;4.22;;;2.25;;
4569;SDS011;2297;51.442;6.996;2024-03-02T07:24:07;6.38;;;2.67;;
4569;SDS011;2297;51.442;6.996;2024-03-02T07:26:37;4.30;;;2.53;;
4569;SDS011;2297;51.442;6.996;2024-03-02T07:29:04;7.43;;;2.53;;
4569;SDS011;2297;51.442;6.996;2024-03-02T07:31:31;7.13;;;2.63;;
4569;SDS011;2297;51.442;6.996;2024-03-02T07:33:57;3.53;;;2.20;;
4569;SDS011;2297;51.442;6.996;2024-03-02T07:36:25;7.75;;;2.80;;
4569;SDS011;2297;51.442;6.996;2024-03-02T07:38:52;3.85;;;2.50;;
4569;SDS011;2297;51.442;6.996;2024-03-02T07:41:19;3.95;;;2.75;;
4569;SDS011;2297;51.442;6.996;2024-03-02T07:43:46;3.72;;;2.80;;
4569;SDS011;2297;51.442;6.996;2024-03-02T07:46:13;4.53;;;2.45;;
4569;SDS011;2297;51.442;6.996;2024-03-02T07:48:41;5.40;;;2.85;;
4569;SDS011;2297;51.442;6.996;2024-03-02T07:51:08;3.55;;;2.38;;
4569;SDS011;2297;51.442;6.996;2024-03-02T07:53:36;4.63;;;2.75;;
4569;SDS011;2297;51.442;6.996;2024-03-02T07:56:03;3.95;;;2.75;;
4569;SDS011;2297;51.442;6.996;2024-03-02T07:58:31;5.05;;;2.13;;
4569;SDS011;2297;51.442;6.996;2024-03-02T08:00:58;6.47;;;2.85;;
4569;SDS011;2297;51.442;6.996;2024-03-02T08:03:26;4.75;;;2.60;;
4569;SDS011;2297;51.442;6.996;2024-03-02T08:05:52;4.50;;;2.40;;
4569;SDS011;2297;51.442;6.996;2024-03-02T08:08:19;3.92;;;2.63;;
4569;SDS011;2297;51.442;6.996;2024-03-02T08:10:47;4.25;;;2.60;;
4569;SDS011;2297;51.442;6.996;2024-03-02T08:13:14;3.45;;;2.15;;
4569;SDS011;2297;51.442;6.996;2024-03-02T08:15:41;6.00;;;2.50;;
4569;SDS011;2297;51.442;6.996;2024-03-02T08:18:07;7.45;;;2.10;;
4569;SDS011;2297;51.442;6.996;2024-03-02T08:20:34;5.15;;;2.78;;
4569;SDS011;2297;51.442;6.996;2024-03-02T08:23:00;3.15;;;2.10;;
4569;SDS011;2297;51.442;6.996;2024-03-02T08:25:27;4.60;;;2.50;;
4569;SDS011;2297;51.442;6.996;2024-03-02T08:27:55;5.13;;;2.53;;
4569;SDS011;2297;51.442;6.996;2024-03-02T08:30:22;5.00;;;2.67;;
4569;SDS011;2297;51.442;6.996;2024-03-02T08:32:49;4.18;;;2.30;;
4569;SDS011;2297;51.442;6.996;2024-03-02T08:35:15;5.78;;;2.75;;
4569;SDS011;2297;51.442;6.996;2024-03-02T08:37:42;3.03;;;2.10;;
4569;SDS011;2297;51.442;6.996;2024-03-02T08:40:09;4.95;;;2.40;;
4569;SDS011;2297;51.442;6.996;2024-03-02T08:42:36;5.05;;;2.03;;
4569;SDS011;2297;51.442;6.996;2024-03-02T08:45:04;2.80;;;2.10;;
4569;SDS011;2297;51.442;6.996;2024-03-02T08:47:32;4.68;;;2.20;;
4569;SDS011;2297;51.442;6.996;2024-03-02T08:50:00;3.70;;;2.10;;
4569;SDS011;2297;51.442;6.996;2024-03-02T08:52:26;4.68;;;2.85;;
4569;SDS011;2297;51.442;6.996;2024-03-02T08:54:53;5.40;;;2.40;;
4569;SDS011;2297;51.442;6.996;2024-03-02T08:57:19;4.55;;;2.30;;
4569;SDS011;2297;51.442;6.996;2024-03-02T08:59:46;5.57;;;2.28;;
4569;SDS011;2297;51.442;6.996;2024-03-02T09:02:14;2.83;;;1.83;;
4569;SDS011;2297;51.442;6.996;2024-03-02T09:04:41;3.50;;;1.98;;
4569;SDS011;2297;51.442;6.996;2024-03-02T09:07:08;3.22;;;2.20;;
4569;SDS011;2297;51.442;6.996;2024-03-02T09:09:34;2.33;;;2.00;;
4569;SDS011;2297;51.442;6.996;2024-03-02T09:12:01;4.90;;;2.20;;
4569;SDS011;2297;51.442;6.996;2024-03-02T09:14:28;4.50;;;2.10;;
4569;SDS011;2297;51.442;6.996;2024-03-02T09:16:54;8.77;;;2.75;;
4569;SDS011;2297;51.442;6.996;2024-03-02T09:19:25;3.55;;;1.90;;
4569;SDS011;2297;51.442;6.996;2024-03-02T09:21:51;4.38;;;2.30;;
4569;SDS011;2297;51.442;6.996;2024-03-02T09:24:20;3.90;;;2.25;;
4569;SDS011;2297;51.442;6.996;2024-03-02T09:26:47;3.13;;;1.92;;
4569;SDS011;2297;51.442;6.996;2024-03-02T09:29:14;2.25;;;1.80;;
4569;SDS011;2297;51.442;6.996;2024-03-02T09:31:40;4.07;;;2.50;;
4569;SDS011;2297;51.442;6.996;2024-03-02T09:34:07;5.40;;;2.30;;
4569;SDS011;2297;51.442;6.996;2024-03-02T09:36:35;3.80;;;2.20;;
4569;SDS011;2297;51.442;6.996;2024-03-02T09:39:02;3.70;;;2.03;;
4569;SDS011;2297;51.442;6.996;2024-03-02T09:41:29;3.53;;;2.00;;
4569;SDS011;2297;51.442;6.996;2024-03-02T09:43:56;3.22;;;1.70;;
4569;SDS011;2297;51.442;6.996;2024-03-02T09:46:23;3.53;;;2.30;;
4569;SDS011;2297;51.442;6.996;2024-03-02T09:48:50;3.13;;;1.90;;
4569;SDS011;2297;51.442;6.996;2024-03-02T09:51:16;3.42;;;2.17;;
4569;SDS011;2297;51.442;6.996;2024-03-02T09:53:45;4.63;;;2.30;;
4569;SDS011;2297;51.442;6.996;2024-03-02T09:56:13;2.75;;;1.77;;
4569;SDS011;2297;51.442;6.996;2024-03-02T09:58:40;2.63;;;1.90;;
4569;SDS011;2297;51.442;6.996;2024-03-02T10:01:10;4.93;;;1.80;;
4569;SDS011;2297;51.442;6.996;2024-03-02T10:03:38;4.32;;;1.88;;
4569;SDS011;2297;51.442;6.996;2024-03-02T10:06:20;7.45;;;2.15;;
4569;SDS011;2297;51.442;6.996;2024-03-02T10:08:49;2.15;;;1.65;;
4569;SDS011;2297;51.442;6.996;2024-03-02T10:11:26;5.03;;;1.80;;
4569;SDS011;2297;51.442;6.996;2024-03-02T10:14:03;2.95;;;1.70;;
4569;SDS011;2297;51.442;6.996;2024-03-02T10:16:33;2.47;;;1.52;;
4569;SDS011;2297;51.442;6.996;2024-03-02T10:19:08;3.45;;;1.42;;
4569;SDS011;2297;51.442;6.996;2024-03-02T10:21:41;3.10;;;1.77;;
4569;SDS011;2297;51.442;6.996;2024-03-02T10:24:10;4.22;;;1.60;;
4569;SDS011;2297;51.442;6.996;2024-03-02T10:26:39;2.15;;;1.55;;
4569;SDS011;2297;51.442;6.996;2024-03-02T10:29:07;3.42;;;1.73;;
4569;SDS011;2297;51.442;6.996;2024-03-02T10:31:35;4.47;;;1.65;;
4569;SDS011;2297;51.442;6.996;2024-03-02T10:34:03;3.05;;;1.63;;
4569;SDS011;2297;51.442;6.996;2024-03-02T10:36:29;4.22;;;1.80;;
4569;SDS011;2297;51.442;6.996;2024-03-02T10:38:56;2.97;;;1.80;;
4569;SDS011;2297;51.442;6.996;2024-03-02T10:41:26;2.45;;;1.50;;
4569;SDS011;2297;51.442;6.996;2024-03-02T10:43:53;2.10;;;1.50;;
4569;SDS011;2297;51.442;6.996;2024-03-02T10:46:24;2.17;;;1.50;;
4569;SDS011;2297;51.442;6.996;2024-03-02T10:48:54;1.67;;;1.42;;
4569;SDS011;2297;51.442;6.996;2024-03-02T10:51:21;2.95;;;1.80;;
4569;SDS011;2297;51.442;6.996;2024-03-02T10:53:48;3.67;;;1.80;;
4569;SDS011;2297;51.442;6.996;2024-03-02T10:56:15;1.98;;;1.45;;
4569;SDS011;2297;51.442;6.996;2024-03-02T10:58:50;3.40;;;1.52;;
4569;SDS011;2297;51.442;6.996;2024-03-02T11:01:21;8.07;;;2.25;;
4569;SDS011;2297;51.442;6.996;2024-03-02T11:03:48;2.80;;;1.35;;
4569;SDS011;2297;51.442;6.996;2024-03-02T11:06:15;3.17;;;1.73;;
4569;SDS011;2297;51.442;6.996;2024-03-02T11:08:43;3.88;;;1.70;;
4569;SDS011;2297;51.442;6.996;2024-03-02T11:11:14;2.33;;;1.30;;
4569;SDS011;2297;51.442;6.996;2024-03-02T11:13:42;1.77;;;1.30;;
4569;SDS011;2297;51.442;6.996;2024-03-02T11:16:26;3.90;;;1.60;;
4569;SDS011;2297;51.442;6.996;2024-03-02T11:19:00;2.47;;;1.60;;
4569;SDS011;2297;51.442;6.996;2024-03-02T11:21:28;2.15;;;1.38;;
4569;SDS011;2297;51.442;6.996;2024-03-02T11:23:56;2.85;;;1.50;;
4569;SDS011;2297;51.442;6.996;2024-03-02T11:26:23;5.47;;;2.13;;
4569;SDS011;2297;51.442;6.996;2024-03-02T11:28:49;3.53;;;1.48;;
4569;SDS011;2297;51.442;6.996;2024-03-02T11:31:18;4.18;;;2.00;;
4569;SDS011;2297;51.442;6.996;2024-03-02T11:33:44;2.17;;;1.60;;
4569;SDS011;2297;51.442;6.996;2024-03-02T11:36:11;4.55;;;1.75;;
4569;SDS011;2297;51.442;6.996;2024-03-02T11:38:37;2.83;;;1.70;;
4569;SDS011;2297;51.442;6.996;2024-03-02T11:41:06;3.65;;;1.58;;
4569;SDS011;2297;51.442;6.996;2024-03-02T11:43:33;1.52;;;1.20;;
4569;SDS011;2297;51.442;6.996;2024-03-02T11:46:04;5.82;;;1.80;;
4569;SDS011;2297;51.442;6.996;2024-03-02T11:48:36;1.95;;;1.20;;
4569;SDS011;2297;51.442;6.996;2024-03-02T11:51:03;4.32;;;1.60;;
4569;SDS011;2297;51.442;6.996;2024-03-02T11:53:30;4.95;;;1.90;;
4569;SDS011;2297;51.442;6.996;2024-03-02T11:55:58;3.10;;;1.65;;
4569;SDS011;2297;51.442;6.996;2024-03-02T11:58:26;2.90;;;1.30;;
4569;SDS011;2297;51.442;6.996;2024-03-02T12:00:53;4.53;;;1.65;;
4569;SDS011;2297;51.442;6.996;2024-03-02T12:03:21;4.07;;;1.20;;
4569;SDS011;2297;51.442;6.996;2024-03-02T12:05:51;4.60;;;1.40;;
4569;SDS011;2297;51.442;6.996;2024-03-02T12:08:19;4.22;;;1.40;;
4569;SDS011;2297;51.442;6.996;2024-03-02T12:10:55;3.50;;;1.50;;
4569;SDS011;2297;51.442;6.996;2024-03-02T12:13:22;3.55;;;1.55;;
4569;SDS011;2297;51.442;6.996;2024-03-02T12:15:52;2.55;;;1.52;;
4569;SDS011;2297;51.442;6.996;2024-03-02T12:18:19;3.17;;;1.40;;
4569;SDS011;2297;51.442;6.996;2024-03-02T12:20:46;2.80;;;1.45;;
4569;SDS011;2297;51.442;6.996;2024-03-02T12:23:17;2.30;;;1.30;;
4569;SDS011;2297;51.442;6.996;2024-03-02T12:25:44;4.32;;;1.70;;
4569;SDS011;2297;51.442;6.996;2024-03-02T12:28:11;3.33;;;1.63;;
4569;SDS011;2297;51.442;6.996;2024-03-02T12:30:38;4.07;;;1.50;;
4569;SDS011;2297;51.442;6.996;2024-03-02T12:33:06;2.10;;;1.30;;
4569;SDS011;2297;51.442;6.996;2024-03-02T12:35:33;3.35;;;1.52;;
4569;SDS011;2297;51.442;6.996;2024-03-02T12:37:59;3.67;;;1.40;;
4569;SDS011;2297;51.442;6.996;2024-03-02T12:40:27;3.72;;;1.42;;
4569;SDS011;2297;51.442;6.996;2024-03-02T12:42:54;3.40;;;1.77;;
4569;SDS011;2297;51.442;6.996;2024-03-02T12:45:20;3.53;;;1.58;;
4569;SDS011;2297;51.442;6.996;2024-03-02T12:47:50;4.10;;;1.50;;
4569;SDS011;2297;51.442;6.996;2024-03-02T12:50:17;5.80;;;1.75;;
4569;SDS011;2297;51.442;6.996;2024-03-02T12:52:50;5.57;;;1.73;;
4569;SDS011;2297;51.442;6.996;2024-03-02T12:55:17;3.05;;;1.58;;
4569;SDS011;2297;51.442;6.996;2024-03-02T12:57:47;3.05;;;1.50;;
4569;SDS011;2297;51.442;6.996;2024-03-02T13:00:17;4.70;;;1.50;;
4569;SDS011;2297;51.442;6.996;2024-03-02T13:02:45;5.35;;;1.20;;
4569;SDS011;2297;51.442;6.996;2024-03-02T13:05:13;5.93;;;1.40;;
4569;SDS011;2297;51.442;6.996;2024-03-02T13:07:40;2.72;;;1.25;;
4569;SDS011;2297;51.442;6.996;2024-03-02T13:10:07;3.20;;;1.65;;
4569;SDS011;2297;51.442;6.996;2024-03-02T13:12:35;3.00;;;1.38;;
4569;SDS011;2297;51.442;6.996;2024-03-02T13:15:04;2.58;;;1.45;;
4569;SDS011;2297;51.442;6.996;2024-03-02T13:17:33;2.85;;;1.40;;
4569;SDS011;2297;51.442;6.996;2024-03-02T13:20:01;3.33;;;1.48;;
4569;SDS011;2297;51.442;6.996;2024-03-02T13:22:33;2.70;;;1.52;;
4569;SDS011;2297;51.442;6.996;2024-03-02T13:24:59;1.92;;;1.40;;
4569;SDS011;2297;51.442;6.996;2024-03-02T13:27:28;2.03;;;1.20;;
4569;SDS011;2297;51.442;6.996;2024-03-02T13:29:55;1.20;;;1.10;;
4569;SDS011;2297;51.442;6.996;2024-03-02T13:32:23;1.98;;;1.10;;
4569;SDS011;2297;51.442;6.996;2024-03-02T13:34:51;3.42;;;1.17;;
4569;SDS011;2297;51.442;6.996;2024-03-02T13:37:20;2.50;;;1.70;;
4569;SDS011;2297;51.442;6.996;2024-03-02T13:42:38;3.75;;;2.00;;
4569;SDS011;2297;51.442;6.996;2024-03-02T13:45:06;2.40;;;1.38;;
4569;SDS011;2297;51.442;6.996;2024-03-02T13:47:34;2.40;;;1.58;;
4569;SDS011;2297;51.442;6.996;2024-03-02T13:50:16;1.83;;;1.38;;
4569;SDS011;2297;51.442;6.996;2024-03-02T13:52:43;1.95;;;1.20;;
4569;SDS011;2297;51.442;6.996;2024-03-02T13:55:09;1.88;;;1.10;;
4569;SDS011;2297;51.442;6.996;2024-03-02T13:57:36;2.20;;;1.50;;
4569;SDS011;2297;51.442;6.996;2024-03-02T14:00:03;3.08;;;1.60;;
4569;SDS011;2297;51.442;6.996;2024-03-02T14:02:36;2.33;;;1.40;;
4569;SDS011;2297;51.442;6.996;2024-03-02T14:05:03;2.85;;;1.48;;
4569;SDS011;2297;51.442;6.996;2024-03-02T14:07:30;2.80;;;1.20;;
4569;SDS011;2297;51.442;6.996;2024-03-02T14:09:57;1.58;;;1.20;;
4569;SDS011;2297;51.442;6.996;2024-03-02T14:12:24;1.40;;;1.00;;
4569;SDS011;2297;51.442;6.996;2024-03-02T14:14:50;2.55;;;1.10;;
4569;SDS011;2297;51.442;6.996;2024-03-02T14:17:20;1.40;;;1.10;;
4569;SDS011;2297;51.442;6.996;2024-03-02T14:19:48;1.55;;;1.30;;
4569;SDS011;2297;51.442;6.996;2024-03-02T14:22:16;4.15;;;1.58;;
4569;SDS011;2297;51.442;6.996;2024-03-02T14:24:43;4.03;;;1.67;;
4569;SDS011;2297;51.442;6.996;2024-03-02T14:27:09;2.20;;;1.42;;
4569;SDS011;2297;51.442;6.996;2024-03-02T14:29:36;2.22;;;1.40;;
4569;SDS011;2297;51.442;6.996;2024-03-02T14:35:15;2.42;;;1.40;;
4569;SDS011;2297;51.442;6.996;2024-03-02T14:37:41;4.07;;;1.90;;
4569;SDS011;2297;51.442;6.996;2024-03-02T14:40:09;4.15;;;1.75;;
4569;SDS011;2297;51.442;6.996;2024-03-02T14:42:39;2.38;;;1.70;;
4569;SDS011;2297;51.442;6.996;2024-03-02T14:45:07;1.45;;;1.25;;
4569;SDS011;2297;51.442;6.996;2024-03-02T14:47:34;3.47;;;1.40;;
4569;SDS011;2297;51.442;6.996;2024-03-02T14:50:01;2.78;;;1.30;;
4569;SDS011;2297;51.442;6.996;2024-03-02T14:52:32;2.55;;;1.10;;
4569;SDS011;2297;51.442;6.996;2024-03-02T14:54:59;1.73;;;0.90;;
4569;SDS011;2297;51.442;6.996;2024-03-02T15:00:19;1.80;;;1.40;;
4569;SDS011;2297;51.442;6.996;2024-03-02T15:02:45;1.63;;;1.40;;
4569;SDS011;2297;51.442;6.996;2024-03-02T15:05:12;2.47;;;1.25;;
4569;SDS011;2297;51.442;6.996;2024-03-02T15:07:41;2.35;;;1.48;;
4569;SDS011;2297;51.442;6.996;2024-03-02T15:10:07;2.60;;;1.27;;
4569;SDS011;2297;51.442;6.996;2024-03-02T15:12:34;2.10;;;1.38;;
4569;SDS011;2297;51.442;6.996;2024-03-02T15:15:01;2.00;;;1.23;;
4569;SDS011;2297;51.442;6.996;2024-03-02T15:17:27;1.58;;;1.20;;
4569;SDS011;2297;51.442;6.996;2024-03-02T15:19:54;1.10;;;0.90;;
4569;SDS011;2297;51.442;6.996;2024-03-02T15:25:44;2.00;;;1.20;;
4569;SDS011;2297;51.442;6.996;2024-03-02T15:28:10;2.88;;;1.77;;
4569;SDS011;2297;51.442;6.996;2024-03-02T15:30:37;3.10;;;1.80;;
4569;SDS011;2297;51.442;6.996;2024-03-02T15:33:04;1.88;;;1.50;;
4569;SDS011;2297;51.442;6.996;2024-03-02T15:35:30;2.75;;;1.58;;
4569;SDS011;2297;51.442;6.996;2024-03-02T15:37:58;9.85;;;4.53;;
4569;SDS011;2297;51.442;6.996;2024-03-02T15:40:25;2.75;;;1.75;;